createdAt,value
2024-01-22T00:00:38.003Z,94.84
2024-01-22T00:01:37.981Z,94.95
2024-01-22T00:02:37.969Z,94.95
2024-01-22T00:03:37.975Z,94.84
2024-01-22T00:04:37.934Z,94.95
2024-01-22T00:05:37.990Z,94.84
2024-01-22T00:06:38.021Z,94.84
2024-01-22T00:07:37.899Z,94.84
2024-01-22T00:08:37.902Z,94.84
2024-01-22T00:09:37.877Z,95.05
2024-01-22T00:10:37.881Z,94.90
2024-01-22T00:11:37.873Z,94.80
2024-01-22T00:12:37.882Z,94.59
2024-01-22T00:13:37.856Z,94.28
2024-01-22T00:14:37.846Z,94.28
2024-01-22T00:15:37.821Z,94.49
2024-01-22T00:16:37.808Z,94.49
2024-01-22T00:17:37.846Z,94.59
2024-01-22T00:18:37.892Z,94.80
2024-01-22T00:19:37.824Z,94.70
2024-01-22T00:20:37.794Z,94.70
2024-01-22T00:21:37.744Z,94.70
2024-01-22T00:22:37.743Z,94.70
2024-01-22T00:23:37.739Z,94.49
2024-01-22T00:24:37.726Z,94.24
2024-01-22T00:25:37.709Z,94.38
2024-01-22T00:26:37.734Z,94.34
2024-01-22T00:27:37.685Z,94.38
2024-01-22T00:28:37.670Z,94.45
2024-01-22T00:29:37.715Z,94.24
2024-01-22T00:30:37.655Z,94.03
2024-01-22T00:31:37.645Z,94.03
2024-01-22T00:32:37.705Z,94.03
2024-01-22T00:33:37.783Z,94.24
2024-01-22T00:34:37.640Z,94.03
2024-01-22T00:35:37.623Z,94.03
2024-01-22T00:36:37.594Z,93.93
2024-01-22T00:37:37.566Z,93.93
2024-01-22T00:38:37.610Z,94.13
2024-01-22T00:39:37.560Z,94.24
2024-01-22T00:40:37.542Z,94.03
2024-01-22T00:41:37.557Z,93.88
2024-01-22T00:42:37.525Z,93.88
2024-01-22T00:43:37.514Z,93.79
2024-01-22T00:44:37.513Z,93.68
2024-01-22T00:45:37.482Z,93.88
2024-01-22T00:46:37.503Z,93.68
2024-01-22T00:47:37.596Z,93.27
2024-01-22T00:48:37.609Z,93.27
2024-01-22T00:49:37.471Z,93.37
2024-01-22T00:50:37.462Z,93.16
2024-01-22T00:51:37.416Z,93.06
2024-01-22T00:52:37.429Z,93.02
2024-01-22T00:53:37.442Z,92.96
2024-01-22T00:54:37.407Z,93.06
2024-01-22T00:55:37.376Z,93.37
2024-01-22T00:56:37.403Z,93.48
2024-01-22T00:57:37.369Z,93.02
2024-01-22T00:58:37.346Z,92.92
2024-01-22T00:59:37.356Z,92.92
2024-01-22T01:00:37.327Z,92.82
2024-01-22T01:01:37.308Z,92.82
2024-01-22T01:02:37.329Z,93.02
2024-01-22T01:03:37.328Z,92.92
2024-01-22T01:04:37.303Z,92.92
2024-01-22T01:05:37.300Z,92.92
2024-01-22T01:06:37.296Z,92.92
2024-01-22T01:07:37.271Z,92.71
2024-01-22T01:08:37.271Z,92.71
2024-01-22T01:09:37.219Z,92.82
2024-01-22T01:10:37.213Z,92.71
2024-01-22T01:11:37.247Z,92.92
2024-01-22T01:12:37.190Z,93.02
2024-01-22T01:13:37.171Z,92.92
2024-01-22T01:14:37.197Z,93.02
2024-01-22T01:15:37.151Z,93.12
2024-01-22T01:16:37.167Z,93.02
2024-01-22T01:17:37.230Z,92.67
2024-01-22T01:18:37.220Z,92.25
2024-01-22T01:19:37.175Z,92.16
2024-01-22T01:20:37.145Z,92.36
2024-01-22T01:21:37.099Z,92.25
2024-01-22T01:22:37.080Z,92.30
2024-01-22T01:23:37.130Z,92.50
2024-01-22T01:24:37.057Z,92.61
2024-01-22T01:25:37.058Z,92.71
2024-01-22T01:26:37.067Z,92.71
2024-01-22T01:27:37.028Z,92.71
2024-01-22T01:28:37.023Z,92.82
2024-01-22T01:29:37.008Z,92.92
2024-01-22T01:30:37.005Z,92.92
2024-01-22T01:31:36.985Z,93.02
2024-01-22T01:32:37.034Z,92.92
2024-01-22T01:33:37.149Z,92.92
2024-01-22T01:34:37.005Z,92.77
2024-01-22T01:35:36.986Z,92.57
2024-01-22T01:36:36.926Z,92.46
2024-01-22T01:37:36.911Z,92.46
2024-01-22T01:38:36.916Z,92.67
2024-01-22T01:39:36.904Z,92.46
2024-01-22T01:40:36.887Z,92.46
2024-01-22T01:41:36.894Z,92.57
2024-01-22T01:42:36.866Z,92.57
2024-01-22T01:43:36.851Z,92.57
2024-01-22T01:44:36.895Z,92.67
2024-01-22T01:45:36.828Z,92.92
2024-01-22T01:46:36.821Z,92.67
2024-01-22T01:47:36.879Z,92.36
2024-01-22T01:48:36.994Z,92.16
2024-01-22T01:49:36.939Z,92.57
2024-01-22T01:50:36.824Z,92.67
2024-01-22T01:51:36.766Z,92.57
2024-01-22T01:52:36.819Z,92.46
2024-01-22T01:53:36.773Z,92.57
2024-01-22T01:54:36.745Z,92.77
2024-01-22T01:55:36.720Z,92.77
2024-01-22T01:56:36.744Z,92.77
2024-01-22T01:57:37.030Z,92.67
2024-01-22T01:58:36.700Z,92.32
2024-01-22T01:59:36.716Z,92.25
2024-01-22T02:00:36.859Z,92.36
2024-01-22T02:01:36.690Z,92.36
2024-01-22T02:02:36.762Z,92.46
2024-01-22T02:03:36.674Z,92.46
2024-01-22T02:04:36.625Z,92.36
2024-01-22T02:05:36.760Z,92.21
2024-01-22T02:06:36.621Z,92.16
2024-01-22T02:07:36.613Z,92.36
2024-01-22T02:08:36.611Z,92.67
2024-01-22T02:09:36.565Z,92.67
2024-01-22T02:10:36.566Z,92.46
2024-01-22T02:11:36.558Z,92.67
2024-01-22T02:12:36.594Z,92.42
2024-01-22T02:13:36.527Z,92.32
2024-01-22T02:14:36.523Z,92.36
2024-01-22T02:15:36.519Z,92.21
2024-01-22T02:16:36.531Z,92.21
2024-01-22T02:17:36.623Z,92.21
2024-01-22T02:18:36.595Z,92.01
2024-01-22T02:19:36.638Z,92.01
2024-01-22T02:20:36.475Z,92.01
2024-01-22T02:21:36.451Z,92.21
2024-01-22T02:22:36.421Z,92.01
2024-01-22T02:23:36.424Z,91.66
2024-01-22T02:24:36.403Z,91.70
2024-01-22T02:25:36.395Z,91.76
2024-01-22T02:26:37.576Z,91.80
2024-01-22T02:27:36.378Z,91.66
2024-01-22T02:28:36.365Z,91.66
2024-01-22T02:29:36.381Z,91.80
2024-01-22T02:30:36.343Z,91.80
2024-01-22T02:31:36.336Z,91.76
2024-01-22T02:32:36.360Z,91.55
2024-01-22T02:33:36.461Z,91.45
2024-01-22T02:34:36.356Z,91.76
2024-01-22T02:35:36.426Z,91.35
2024-01-22T02:36:36.276Z,91.00
2024-01-22T02:37:36.263Z,91.04
2024-01-22T02:38:36.280Z,91.04
2024-01-22T02:39:36.240Z,91.04
2024-01-22T02:40:36.244Z,91.14
2024-01-22T02:41:36.262Z,91.35
2024-01-22T02:42:36.210Z,91.45
2024-01-22T02:43:36.199Z,91.35
2024-01-22T02:44:36.218Z,91.14
2024-01-22T02:45:36.180Z,91.14
2024-01-22T02:46:36.164Z,91.25
2024-01-22T02:47:36.233Z,91.14
2024-01-22T02:48:36.292Z,91.14
2024-01-22T02:49:36.513Z,91.04
2024-01-22T02:50:36.144Z,91.14
2024-01-22T02:51:36.110Z,91.04
2024-01-22T02:52:36.097Z,91.04
2024-01-22T02:53:36.093Z,91.25
2024-01-22T02:54:36.083Z,91.25
2024-01-22T02:55:36.057Z,91.35
2024-01-22T02:56:36.073Z,91.14
2024-01-22T02:57:36.038Z,91.04
2024-01-22T02:58:36.040Z,91.14
2024-01-22T02:59:36.058Z,91.25
2024-01-22T03:00:36.112Z,91.14
2024-01-22T03:01:35.993Z,91.35
2024-01-22T03:02:36.056Z,91.35
2024-01-22T03:03:35.981Z,91.35
2024-01-22T03:04:36.015Z,91.14
2024-01-22T03:05:36.058Z,91.14
2024-01-22T03:06:36.031Z,90.80
2024-01-22T03:07:35.928Z,90.59
2024-01-22T03:08:35.986Z,90.59
2024-01-22T03:09:35.903Z,90.94
2024-01-22T03:10:35.904Z,91.04
2024-01-22T03:11:35.900Z,91.00
2024-01-22T03:12:35.884Z,90.89
2024-01-22T03:13:35.869Z,91.00
2024-01-22T03:14:35.885Z,91.00
2024-01-22T03:15:35.843Z,91.00
2024-01-22T03:16:35.832Z,90.69
2024-01-22T03:17:35.895Z,90.59
2024-01-22T03:18:35.929Z,90.69
2024-01-22T03:19:35.830Z,90.89
2024-01-22T03:20:35.834Z,91.00
2024-01-22T03:21:35.775Z,91.10
2024-01-22T03:22:35.829Z,91.20
2024-01-22T03:23:35.789Z,91.10
2024-01-22T03:24:35.737Z,91.00
2024-01-22T03:25:35.725Z,90.89
2024-01-22T03:26:35.784Z,90.55
2024-01-22T03:27:35.748Z,90.24
2024-01-22T03:28:35.696Z,90.03
2024-01-22T03:29:35.718Z,90.03
2024-01-22T03:30:35.670Z,90.03
2024-01-22T03:31:35.666Z,90.03
2024-01-22T03:32:35.757Z,89.93
2024-01-22T03:33:35.725Z,90.34
2024-01-22T03:34:35.710Z,90.34
2024-01-22T03:35:35.649Z,90.44
2024-01-22T03:36:35.654Z,90.44
2024-01-22T03:37:35.588Z,90.34
2024-01-22T03:38:35.598Z,90.34
2024-01-22T03:39:35.576Z,90.34
2024-01-22T03:40:35.583Z,90.34
2024-01-22T03:41:35.567Z,90.24
2024-01-22T03:42:35.543Z,90.24
2024-01-22T03:43:35.521Z,90.44
2024-01-22T03:44:35.568Z,90.55
2024-01-22T03:45:35.507Z,90.75
2024-01-22T03:46:35.493Z,90.65
2024-01-22T03:47:35.560Z,90.44
2024-01-22T03:48:35.563Z,90.34
2024-01-22T03:49:35.607Z,90.44
2024-01-22T03:50:35.581Z,90.44
2024-01-22T03:51:35.430Z,90.44
2024-01-22T03:52:35.426Z,90.55
2024-01-22T03:53:35.486Z,90.30
2024-01-22T03:54:35.428Z,89.99
2024-01-22T03:55:35.398Z,90.20
2024-01-22T03:56:35.413Z,90.61
2024-01-22T03:57:35.379Z,91.06
2024-01-22T03:58:35.495Z,91.88
2024-01-22T03:59:35.396Z,92.40
2024-01-22T04:00:35.484Z,92.91
2024-01-22T04:01:35.327Z,93.52
2024-01-22T04:02:35.445Z,94.34
2024-01-22T04:03:35.500Z,95.10
2024-01-22T04:04:35.323Z,95.83
2024-01-22T04:05:35.314Z,96.55
2024-01-22T04:06:35.431Z,96.95
2024-01-22T04:07:35.266Z,97.31
2024-01-22T04:08:35.283Z,97.92
2024-01-22T04:09:35.245Z,98.33
2024-01-22T04:10:35.232Z,98.54
2024-01-22T04:11:35.238Z,98.33
2024-01-22T04:12:35.211Z,98.65
2024-01-22T04:13:35.861Z,99.10
2024-01-22T04:14:35.254Z,99.51
2024-01-22T04:15:35.178Z,99.62
2024-01-22T04:16:35.176Z,99.57
2024-01-22T04:17:35.275Z,99.57
2024-01-22T04:18:35.316Z,99.82
2024-01-22T04:19:35.170Z,99.99
2024-01-22T04:20:35.157Z,99.99
2024-01-22T04:21:35.106Z,99.99
2024-01-22T04:22:35.113Z,99.98
2024-01-22T04:23:35.114Z,99.88
2024-01-22T04:24:38.233Z,99.77
2024-01-22T04:25:35.062Z,99.88
2024-01-22T04:26:35.093Z,99.88
2024-01-22T04:27:35.047Z,99.99
2024-01-22T04:28:35.035Z,99.99
2024-01-22T04:29:35.057Z,99.99
2024-01-22T04:30:36.138Z,99.99
2024-01-22T04:31:35.013Z,99.99
2024-01-22T04:32:35.068Z,99.99
2024-01-22T04:33:35.201Z,99.99
2024-01-22T04:34:34.996Z,99.99
2024-01-22T04:35:35.071Z,99.99
2024-01-22T04:36:34.967Z,99.99
2024-01-22T04:37:34.926Z,99.99
2024-01-22T04:38:35.015Z,99.99
2024-01-22T04:39:34.907Z,99.99
2024-01-22T04:40:34.928Z,99.99
2024-01-22T04:41:35.001Z,99.99
2024-01-22T04:42:34.900Z,99.99
2024-01-22T04:43:34.860Z,99.99
2024-01-22T04:44:35.039Z,99.99
2024-01-22T04:45:34.878Z,99.99
2024-01-22T04:46:34.840Z,99.99
2024-01-22T04:47:34.894Z,99.99
2024-01-22T04:48:34.916Z,99.99
2024-01-22T04:49:34.827Z,99.99
2024-01-22T04:50:34.907Z,99.99
2024-01-22T04:51:34.769Z,99.99
2024-01-22T04:52:34.769Z,99.99
2024-01-22T04:53:34.746Z,99.99
2024-01-22T04:54:34.742Z,99.99
2024-01-22T04:55:36.661Z,99.99
2024-01-22T04:56:34.722Z,99.99
2024-01-22T04:57:34.702Z,99.99
2024-01-22T04:58:34.696Z,99.99
2024-01-22T04:59:34.737Z,99.99
2024-01-22T05:00:34.773Z,99.99
2024-01-22T05:01:34.672Z,99.99
2024-01-22T05:02:34.810Z,99.99
2024-01-22T05:03:34.690Z,99.99
2024-01-22T05:04:34.685Z,99.99
2024-01-22T05:05:34.721Z,99.99
2024-01-22T05:06:34.656Z,99.99
2024-01-22T05:07:34.654Z,99.99
2024-01-22T05:08:34.591Z,99.99
2024-01-22T05:09:34.588Z,99.99
2024-01-22T05:10:34.566Z,99.99
2024-01-22T05:11:34.558Z,99.99
2024-01-22T05:12:34.541Z,99.99
2024-01-22T05:13:34.651Z,99.99
2024-01-22T05:14:34.532Z,99.99
2024-01-22T05:15:34.511Z,99.99
2024-01-22T05:16:34.554Z,99.99
2024-01-22T05:17:34.576Z,99.99
2024-01-22T05:18:34.575Z,99.99
2024-01-22T05:19:34.794Z,99.99
2024-01-22T05:20:34.458Z,99.99
2024-01-22T05:21:34.445Z,99.99
2024-01-22T05:22:34.424Z,99.99
2024-01-22T05:23:34.430Z,99.99
2024-01-22T05:24:34.412Z,99.99
2024-01-22T05:25:34.399Z,99.99
2024-01-22T05:26:34.395Z,99.99
2024-01-22T05:27:34.376Z,99.99
2024-01-22T05:28:34.372Z,99.99
2024-01-22T05:29:34.356Z,99.99
2024-01-22T05:30:34.343Z,99.99
2024-01-22T05:31:34.424Z,99.99
2024-01-22T05:32:34.410Z,99.99
2024-01-22T05:33:34.504Z,99.99
2024-01-22T05:34:34.324Z,99.99
2024-01-22T05:35:34.309Z,99.99
2024-01-22T05:36:34.296Z,99.99
2024-01-22T05:37:34.289Z,99.99
2024-01-22T05:38:34.248Z,99.99
2024-01-22T05:39:34.264Z,99.99
2024-01-22T05:40:34.239Z,99.99
2024-01-22T05:41:34.241Z,99.99
2024-01-22T05:42:34.223Z,99.99
2024-01-22T05:43:34.218Z,99.99
2024-01-22T05:44:34.199Z,99.99
2024-01-22T05:45:34.188Z,99.99
2024-01-22T05:46:34.190Z,99.99
2024-01-22T05:47:34.208Z,99.99
2024-01-22T05:48:34.229Z,99.99
2024-01-22T05:49:34.275Z,99.99
2024-01-22T05:50:34.120Z,99.99
2024-01-22T05:51:34.131Z,99.99
2024-01-22T05:52:34.099Z,99.99
2024-01-22T05:53:34.101Z,99.99
2024-01-22T05:54:34.079Z,99.99
2024-01-22T05:55:34.097Z,99.99
2024-01-22T05:56:34.313Z,99.99
2024-01-22T05:57:34.195Z,99.99
2024-01-22T05:58:34.052Z,99.99
2024-01-22T05:59:34.036Z,99.99
2024-01-22T06:00:34.083Z,99.99
2024-01-22T06:01:34.017Z,99.99
2024-01-22T06:02:33.998Z,99.99
2024-01-22T06:03:34.087Z,99.99
2024-01-22T06:04:33.977Z,99.99
2024-01-22T06:05:33.982Z,99.99
2024-01-22T06:06:34.043Z,99.99
2024-01-22T06:07:33.994Z,99.99
2024-01-22T06:08:33.930Z,99.99
2024-01-22T06:09:34.093Z,99.99
2024-01-22T06:10:33.959Z,99.99
2024-01-22T06:11:33.900Z,99.99
2024-01-22T06:12:33.902Z,99.99
2024-01-22T06:13:39.991Z,99.99
2024-01-22T06:14:33.886Z,99.99
2024-01-22T06:15:33.878Z,99.99
2024-01-22T06:16:33.845Z,99.99
2024-01-22T06:17:33.849Z,99.99
2024-01-22T06:18:33.852Z,99.99
2024-01-22T06:19:33.910Z,99.99
2024-01-22T06:20:35.715Z,99.99
2024-01-22T06:21:33.829Z,99.99
2024-01-22T06:22:33.794Z,99.99
2024-01-22T06:23:33.773Z,99.99
2024-01-22T06:24:33.769Z,99.99
2024-01-22T06:25:33.749Z,99.99
2024-01-22T06:26:33.756Z,99.99
2024-01-22T06:27:33.725Z,99.99
2024-01-22T06:28:33.723Z,99.99
2024-01-22T06:29:33.708Z,99.99
2024-01-22T06:30:33.718Z,99.99
2024-01-22T06:31:33.758Z,99.99
2024-01-22T06:32:33.746Z,99.99
2024-01-22T06:33:33.754Z,99.99
2024-01-22T06:34:33.794Z,99.99
2024-01-22T06:35:33.632Z,99.99
2024-01-22T06:36:33.618Z,99.99
2024-01-22T06:37:33.614Z,99.99
2024-01-22T06:38:33.628Z,99.99
2024-01-22T06:39:33.584Z,99.99
2024-01-22T06:40:33.568Z,99.99
2024-01-22T06:41:33.563Z,99.99
2024-01-22T06:42:38.248Z,99.99
2024-01-22T06:43:33.578Z,99.99
2024-01-22T06:44:33.525Z,99.99
2024-01-22T06:45:33.552Z,99.99
2024-01-22T06:46:33.683Z,99.99
2024-01-22T06:47:33.520Z,99.99
2024-01-22T06:48:33.746Z,99.99
2024-01-22T06:49:33.511Z,99.99
2024-01-22T06:50:33.461Z,99.99
2024-01-22T06:51:38.057Z,99.99
2024-01-22T06:52:33.690Z,99.99
2024-01-22T06:53:33.425Z,99.99
2024-01-22T06:54:33.474Z,99.99
2024-01-22T06:55:33.402Z,99.99
2024-01-22T06:56:33.412Z,99.99
2024-01-22T06:57:33.394Z,99.99
2024-01-22T06:58:33.373Z,99.99
2024-01-22T06:59:33.358Z,99.99
2024-01-22T07:00:33.408Z,99.99
2024-01-22T07:01:33.363Z,99.99
2024-01-22T07:02:33.331Z,99.99
2024-01-22T07:03:33.389Z,99.99
2024-01-22T07:04:33.311Z,99.99
2024-01-22T07:05:33.340Z,99.99
2024-01-22T07:06:33.335Z,99.99
2024-01-22T07:07:33.269Z,99.99
2024-01-22T07:08:33.265Z,99.99
2024-01-22T07:09:33.256Z,99.99
2024-01-22T07:10:33.263Z,99.99
2024-01-22T07:11:33.291Z,99.99
2024-01-22T07:12:33.274Z,99.99
2024-01-22T07:13:33.203Z,99.99
2024-01-22T07:14:33.204Z,99.99
2024-01-22T07:15:33.286Z,99.99
2024-01-22T07:16:33.178Z,99.99
2024-01-22T07:17:33.185Z,99.99
2024-01-22T07:18:33.334Z,99.99
2024-01-22T07:19:33.312Z,99.99
2024-01-22T07:20:33.189Z,99.99
2024-01-22T07:21:33.122Z,99.99
2024-01-22T07:22:33.125Z,99.99
2024-01-22T07:23:33.097Z,99.99
2024-01-22T07:24:33.114Z,99.99
2024-01-22T07:25:33.086Z,99.99
2024-01-22T07:26:33.070Z,99.99
2024-01-22T07:27:33.054Z,99.99
2024-01-22T07:28:33.044Z,99.99
2024-01-22T07:29:33.057Z,99.99
2024-01-22T07:30:33.082Z,99.99
2024-01-22T07:31:33.005Z,99.99
2024-01-22T07:32:33.015Z,99.99
2024-01-22T07:33:33.137Z,99.99
2024-01-22T07:34:33.028Z,99.99
2024-01-22T07:35:32.988Z,99.99
2024-01-22T07:36:32.956Z,99.99
2024-01-22T07:37:32.943Z,99.99
2024-01-22T07:38:32.954Z,99.99
2024-01-22T07:39:32.977Z,99.99
2024-01-22T07:40:32.929Z,99.99
2024-01-22T07:41:32.903Z,99.99
2024-01-22T07:42:32.901Z,99.99
2024-01-22T07:43:32.929Z,99.99
2024-01-22T07:44:32.873Z,99.99
2024-01-22T07:45:32.916Z,99.99
2024-01-22T07:46:32.852Z,99.99
2024-01-22T07:47:32.859Z,99.99
2024-01-22T07:48:32.948Z,99.99
2024-01-22T07:49:32.934Z,99.99
2024-01-22T07:50:32.805Z,99.99
2024-01-22T07:51:32.792Z,99.99
2024-01-22T07:52:32.794Z,99.99
2024-01-22T07:53:32.795Z,99.99
2024-01-22T07:54:32.762Z,99.99
2024-01-22T07:55:32.750Z,99.99
2024-01-22T07:56:32.740Z,99.99
2024-01-22T07:57:32.748Z,99.99
2024-01-22T07:58:32.721Z,99.99
2024-01-22T07:59:32.712Z,99.99
2024-01-22T08:00:32.747Z,99.99
2024-01-22T08:01:32.683Z,99.99
2024-01-22T08:02:32.685Z,99.99
2024-01-22T08:03:32.741Z,99.99
2024-01-22T08:04:32.766Z,99.99
2024-01-22T08:05:32.632Z,99.99
2024-01-22T08:06:32.776Z,99.99
2024-01-22T08:07:32.704Z,99.99
2024-01-22T08:08:32.631Z,99.99
2024-01-22T08:09:32.606Z,99.99
2024-01-22T08:10:32.589Z,99.99
2024-01-22T08:11:32.583Z,99.99
2024-01-22T08:12:32.586Z,99.99
2024-01-22T08:13:32.548Z,99.99
2024-01-22T08:14:32.542Z,99.99
2024-01-22T08:15:32.582Z,99.99
2024-01-22T08:16:32.536Z,99.99
2024-01-22T08:17:32.513Z,99.99
2024-01-22T08:18:32.602Z,99.99
2024-01-22T08:19:32.503Z,99.99
2024-01-22T08:20:33.804Z,99.99
2024-01-22T08:21:32.558Z,99.99
2024-01-22T08:22:32.451Z,99.99
2024-01-22T08:23:32.444Z,99.99
2024-01-22T08:24:32.461Z,99.99
2024-01-22T08:25:32.684Z,99.99
2024-01-22T08:26:34.790Z,99.99
2024-01-22T08:27:32.475Z,99.99
2024-01-22T08:28:32.398Z,99.99
2024-01-22T08:29:32.382Z,99.99
2024-01-22T08:30:32.427Z,99.99
2024-01-22T08:31:32.393Z,99.99
2024-01-22T08:32:32.365Z,99.99
2024-01-22T08:33:32.493Z,99.99
2024-01-22T08:34:32.528Z,99.99
2024-01-22T08:35:32.665Z,99.99
2024-01-22T08:36:32.372Z,99.99
2024-01-22T08:37:32.290Z,99.99
2024-01-22T08:38:32.274Z,99.99
2024-01-22T08:39:32.277Z,99.99
2024-01-22T08:40:32.253Z,99.99
2024-01-22T08:41:32.264Z,99.99
2024-01-22T08:42:32.231Z,99.99
2024-01-22T08:43:32.225Z,99.99
2024-01-22T08:44:32.251Z,99.99
2024-01-22T08:45:32.207Z,99.99
2024-01-22T08:46:32.183Z,99.99
2024-01-22T08:47:32.232Z,99.99
2024-01-22T08:48:32.250Z,99.99
2024-01-22T08:49:33.538Z,99.99
2024-01-22T08:50:32.145Z,99.99
2024-01-22T08:51:32.209Z,99.99
2024-01-22T08:52:32.129Z,99.99
2024-01-22T08:53:32.136Z,99.99
2024-01-22T08:54:32.105Z,99.99
2024-01-22T08:55:32.102Z,99.99
2024-01-22T08:56:32.071Z,99.99
2024-01-22T08:57:32.069Z,99.99
2024-01-22T08:58:32.068Z,99.99
2024-01-22T08:59:32.045Z,99.99
2024-01-22T09:00:32.098Z,99.99
2024-01-22T09:01:32.059Z,99.99
2024-01-22T09:02:32.007Z,99.99
2024-01-22T09:03:32.038Z,99.99
2024-01-22T09:04:32.023Z,99.99
2024-01-22T09:05:32.070Z,99.99
2024-01-22T09:06:31.976Z,99.99
2024-01-22T09:07:31.976Z,99.99
2024-01-22T09:08:31.951Z,99.99
2024-01-22T09:09:31.930Z,99.99
2024-01-22T09:10:31.924Z,99.99
2024-01-22T09:11:31.911Z,99.99
2024-01-22T09:12:31.907Z,99.99
2024-01-22T09:13:31.911Z,99.99
2024-01-22T09:14:31.876Z,99.99
2024-01-22T09:15:31.892Z,99.99
2024-01-22T09:16:31.853Z,99.99
2024-01-22T09:17:31.915Z,99.99
2024-01-22T09:18:31.921Z,99.99
2024-01-22T09:19:31.996Z,99.99
2024-01-22T09:20:31.809Z,99.99
2024-01-22T09:21:31.838Z,99.99
2024-01-22T09:22:31.801Z,99.99
2024-01-22T09:23:31.782Z,99.99
2024-01-22T09:24:31.765Z,99.99
2024-01-22T09:25:31.761Z,99.99
2024-01-22T09:26:31.754Z,99.99
2024-01-22T09:27:31.748Z,99.99
2024-01-22T09:28:31.736Z,99.99
2024-01-22T09:29:31.734Z,99.99
2024-01-22T09:30:31.771Z,99.99
2024-01-22T09:31:31.738Z,99.99
2024-01-22T09:32:31.728Z,99.99
2024-01-22T09:33:31.801Z,99.99
2024-01-22T09:34:31.711Z,99.99
2024-01-22T09:35:31.671Z,99.99
2024-01-22T09:36:31.667Z,99.99
2024-01-22T09:37:31.652Z,99.99
2024-01-22T09:38:31.651Z,99.99
2024-01-22T09:39:31.615Z,99.99
2024-01-22T09:40:31.635Z,99.99
2024-01-22T09:41:31.582Z,99.99
2024-01-22T09:42:31.605Z,99.99
2024-01-22T09:43:31.569Z,99.99
2024-01-22T09:44:31.576Z,99.99
2024-01-22T09:45:31.561Z,99.99
2024-01-22T09:46:31.667Z,99.99
2024-01-22T09:47:31.643Z,99.99
2024-01-22T09:48:31.781Z,99.99
2024-01-22T09:49:31.831Z,99.99
2024-01-22T09:50:31.599Z,99.99
2024-01-22T09:51:31.654Z,99.99
2024-01-22T09:52:31.613Z,99.99
2024-01-22T09:53:31.621Z,99.99
2024-01-22T09:54:31.533Z,99.99
2024-01-22T09:55:31.443Z,99.99
2024-01-22T09:56:31.416Z,99.99
2024-01-22T09:57:31.425Z,99.99
2024-01-22T09:58:31.422Z,99.99
2024-01-22T09:59:31.602Z,99.99
2024-01-22T10:00:31.485Z,99.99
2024-01-22T10:01:31.452Z,99.99
2024-01-22T10:02:31.347Z,99.99
2024-01-22T10:03:31.535Z,99.99
2024-01-22T10:04:31.347Z,99.99
2024-01-22T10:05:31.338Z,99.99
2024-01-22T10:06:31.407Z,99.99
2024-01-22T10:07:31.325Z,99.99
2024-01-22T10:08:31.300Z,99.99
2024-01-22T10:09:31.382Z,99.99
2024-01-22T10:10:31.263Z,99.99
2024-01-22T10:11:31.256Z,99.99
2024-01-22T10:12:31.282Z,99.99
2024-01-22T10:13:31.272Z,99.99
2024-01-22T10:14:31.246Z,99.99
2024-01-22T10:15:31.294Z,99.99
2024-01-22T10:16:31.195Z,99.99
2024-01-22T10:17:31.249Z,99.99
2024-01-22T10:18:31.302Z,99.99
2024-01-22T10:19:31.285Z,99.99
2024-01-22T10:20:31.174Z,99.99
2024-01-22T10:21:31.174Z,99.99
2024-01-22T10:22:31.141Z,99.99
2024-01-22T10:23:31.140Z,99.99
2024-01-22T10:24:31.114Z,99.99
2024-01-22T10:25:31.115Z,99.99
2024-01-22T10:26:31.096Z,99.99
2024-01-22T10:27:31.180Z,99.99
2024-01-22T10:28:32.017Z,99.99
2024-01-22T10:29:31.068Z,99.99
2024-01-22T10:30:31.088Z,99.99
2024-01-22T10:31:31.088Z,99.99
2024-01-22T10:32:31.042Z,99.99
2024-01-22T10:33:31.222Z,99.99
2024-01-22T10:34:31.020Z,99.99
2024-01-22T10:35:30.989Z,99.99
2024-01-22T10:36:31.098Z,99.99
2024-01-22T10:37:30.976Z,99.88
2024-01-22T10:38:30.951Z,99.57
2024-01-22T10:39:30.994Z,99.22
2024-01-22T10:40:30.944Z,99.02
2024-01-22T10:41:30.940Z,98.91
2024-01-22T10:42:30.945Z,98.91
2024-01-22T10:43:31.513Z,98.61
2024-01-22T10:44:30.915Z,98.30
2024-01-22T10:45:31.113Z,97.74
2024-01-22T10:46:30.866Z,97.74
2024-01-22T10:47:30.903Z,97.85
2024-01-22T10:48:38.547Z,98.05
2024-01-22T10:49:30.960Z,97.64
2024-01-22T10:50:30.922Z,97.33
2024-01-22T10:51:30.831Z,97.24
2024-01-22T10:52:30.801Z,97.33
2024-01-22T10:53:30.793Z,97.33
2024-01-22T10:54:30.859Z,97.54
2024-01-22T10:55:30.795Z,97.95
2024-01-22T10:56:30.758Z,97.85
2024-01-22T10:57:30.748Z,98.05
2024-01-22T10:58:31.336Z,98.36
2024-01-22T11:00:25.334Z,98.50
2024-01-22T11:01:27.988Z,98.36
2024-01-22T11:02:26.212Z,98.46
2024-01-22T11:03:26.318Z,98.46
2024-01-22T11:04:26.266Z,98.36
2024-01-22T11:05:26.326Z,98.05
2024-01-22T11:06:27.228Z,97.85
2024-01-22T11:07:26.181Z,97.85
2024-01-22T11:08:26.178Z,98.15
2024-01-22T11:09:26.285Z,98.15
2024-01-22T11:10:26.136Z,98.05
2024-01-22T11:11:26.142Z,98.05
2024-01-22T11:12:26.135Z,98.25
2024-01-22T11:13:26.119Z,98.05
2024-01-22T11:14:26.093Z,97.74
2024-01-22T11:15:26.164Z,97.64
2024-01-22T11:16:26.101Z,97.54
2024-01-22T11:17:26.052Z,97.64
2024-01-22T11:18:26.153Z,97.64
2024-01-22T11:19:26.249Z,97.74
2024-01-22T11:20:26.028Z,97.74
2024-01-22T11:21:26.008Z,97.95
2024-01-22T11:22:26.007Z,98.15
2024-01-22T11:23:25.991Z,98.46
2024-01-22T11:24:26.101Z,98.77
2024-01-22T11:25:25.966Z,99.22
2024-01-22T11:26:25.958Z,99.32
2024-01-22T11:27:26.021Z,99.63
2024-01-22T11:28:25.935Z,99.73
2024-01-22T11:29:25.933Z,99.93
2024-01-22T11:30:25.916Z,99.99
2024-01-22T11:31:25.918Z,99.99
2024-01-22T11:32:25.946Z,99.99
2024-01-22T11:33:25.945Z,99.99
2024-01-22T11:34:25.884Z,99.99
2024-01-22T11:35:25.964Z,99.99
2024-01-22T11:36:26.001Z,99.99
2024-01-22T11:37:25.823Z,99.99
2024-01-22T11:38:25.815Z,99.99
2024-01-22T11:39:25.837Z,99.99
2024-01-22T11:40:25.794Z,99.99
2024-01-22T11:41:25.788Z,99.99
2024-01-22T11:42:25.808Z,99.99
2024-01-22T11:43:25.759Z,99.99
2024-01-22T11:44:25.863Z,99.99
2024-01-22T11:45:30.222Z,99.99
2024-01-22T11:46:25.833Z,99.99
2024-01-22T11:47:25.733Z,99.99
2024-01-22T11:48:26.002Z,99.99
2024-01-22T11:49:25.813Z,99.99
2024-01-22T11:50:25.688Z,99.99
2024-01-22T11:51:25.749Z,99.99
2024-01-22T11:52:25.764Z,99.99
2024-01-22T11:53:25.640Z,99.99
2024-01-22T11:54:25.681Z,99.99
2024-01-22T11:55:25.626Z,99.99
2024-01-22T11:56:25.613Z,99.99
2024-01-22T11:57:25.658Z,99.99
2024-01-22T11:58:25.594Z,99.99
2024-01-22T11:59:25.582Z,99.99
2024-01-22T12:00:25.624Z,99.99
2024-01-22T12:01:25.555Z,99.99
2024-01-22T12:02:25.564Z,99.99
2024-01-22T12:03:25.635Z,99.99
2024-01-22T12:04:25.560Z,99.99
2024-01-22T12:05:25.521Z,99.99
2024-01-22T12:06:25.533Z,99.99
2024-01-22T12:07:25.493Z,99.99
2024-01-22T12:08:25.499Z,99.99
2024-01-22T12:09:25.485Z,99.99
2024-01-22T12:10:25.463Z,99.99
2024-01-22T12:11:25.447Z,99.99
2024-01-22T12:12:25.470Z,99.99
2024-01-22T12:13:25.506Z,99.99
2024-01-22T12:14:25.429Z,99.99
2024-01-22T12:15:25.686Z,99.99
2024-01-22T12:16:25.401Z,99.99
2024-01-22T12:17:25.424Z,99.99
2024-01-22T12:18:25.496Z,99.99
2024-01-22T12:19:25.407Z,99.69
2024-01-22T12:20:25.434Z,99.69
2024-01-22T12:21:25.390Z,99.79
2024-01-22T12:22:25.352Z,99.99
2024-01-22T12:23:25.320Z,99.99
2024-01-22T12:24:25.360Z,99.99
2024-01-22T12:25:25.289Z,99.99
2024-01-22T12:26:25.283Z,99.99
2024-01-22T12:27:25.333Z,99.99
2024-01-22T12:28:25.271Z,99.99
2024-01-22T12:29:25.248Z,99.99
2024-01-22T12:30:25.401Z,99.99
2024-01-22T12:31:25.255Z,99.99
2024-01-22T12:32:25.302Z,99.99
2024-01-22T12:33:26.014Z,99.99
2024-01-22T12:34:25.246Z,99.99
2024-01-22T12:35:25.337Z,99.99
2024-01-22T12:36:25.244Z,99.99
2024-01-22T12:37:25.187Z,99.99
2024-01-22T12:38:25.761Z,99.99
2024-01-22T12:39:25.197Z,99.99
2024-01-22T12:40:25.125Z,99.99
2024-01-22T12:41:25.152Z,99.99
2024-01-22T12:42:25.167Z,99.99
2024-01-22T12:43:25.178Z,99.99
2024-01-22T12:44:25.088Z,99.99
2024-01-22T12:45:25.208Z,99.99
2024-01-22T12:46:25.085Z,99.99
2024-01-22T12:47:25.094Z,99.99
2024-01-22T12:48:25.132Z,99.99
2024-01-22T12:49:25.149Z,99.99
2024-01-22T12:50:25.036Z,99.99
2024-01-22T12:51:25.078Z,99.99
2024-01-22T12:52:24.995Z,99.99
2024-01-22T12:53:24.983Z,99.99